sensor_id;sensor_type;location;lat;lon;timestamp;P1;durP1;ratioP1;P2;durP2;ratioP2
10939;SDS011;5522;42.696;23.494;2023-08-06T00:00:54;1.98;;;0.88;;
10939;SDS011;5522;42.696;23.494;2023-08-06T00:03:21;1.52;;;0.60;;
10939;SDS011;5522;42.696;23.494;2023-08-06T00:05:47;4.82;;;0.77;;
10939;SDS011;5522;42.696;23.494;2023-08-06T00:08:14;1.58;;;0.80;;
10939;SDS011;5522;42.696;23.494;2023-08-06T00:10:42;0.88;;;0.68;;
10939;SDS011;5522;42.696;23.494;2023-08-06T00:13:09;0.75;;;0.75;;
10939;SDS011;5522;42.696;23.494;2023-08-06T00:15:35;1.10;;;0.70;;
10939;SDS011;5522;42.696;23.494;2023-08-06T00:18:03;2.60;;;0.70;;
10939;SDS011;5522;42.696;23.494;2023-08-06T00:20:29;1.08;;;0.73;;
10939;SDS011;5522;42.696;23.494;2023-08-06T00:22:56;1.17;;;0.90;;
10939;SDS011;5522;42.696;23.494;2023-08-06T00:25:23;4.28;;;0.98;;
10939;SDS011;5522;42.696;23.494;2023-08-06T00:27:53;2.88;;;0.70;;
10939;SDS011;5522;42.696;23.494;2023-08-06T00:30:21;2.95;;;0.90;;
10939;SDS011;5522;42.696;23.494;2023-08-06T00:32:48;1.33;;;0.80;;
10939;SDS011;5522;42.696;23.494;2023-08-06T00:35:15;4.15;;;1.10;;
10939;SDS011;5522;42.696;23.494;2023-08-06T00:37:42;2.05;;;0.85;;
10939;SDS011;5522;42.696;23.494;2023-08-06T00:40:08;1.67;;;0.90;;
10939;SDS011;5522;42.696;23.494;2023-08-06T00:42:35;1.75;;;1.00;;
10939;SDS011;5522;42.696;23.494;2023-08-06T00:45:04;1.98;;;0.75;;
10939;SDS011;5522;42.696;23.494;2023-08-06T00:47:31;1.17;;;1.08;;
10939;SDS011;5522;42.696;23.494;2023-08-06T00:49:58;2.22;;;1.25;;
10939;SDS011;5522;42.696;23.494;2023-08-06T00:52:25;2.33;;;1.00;;
10939;SDS011;5522;42.696;23.494;2023-08-06T00:54:52;2.60;;;0.98;;
10939;SDS011;5522;42.696;23.494;2023-08-06T00:57:19;2.10;;;1.00;;
10939;SDS011;5522;42.696;23.494;2023-08-06T00:59:49;1.40;;;1.08;;
10939;SDS011;5522;42.696;23.494;2023-08-06T01:02:17;1.52;;;1.00;;
10939;SDS011;5522;42.696;23.494;2023-08-06T01:04:44;1.98;;;1.15;;
10939;SDS011;5522;42.696;23.494;2023-08-06T01:07:15;4.15;;;1.33;;
10939;SDS011;5522;42.696;23.494;2023-08-06T01:09:55;1.23;;;1.10;;
10939;SDS011;5522;42.696;23.494;2023-08-06T01:12:33;4.30;;;1.30;;
10939;SDS011;5522;42.696;23.494;2023-08-06T01:15:10;2.17;;;1.30;;
10939;SDS011;5522;42.696;23.494;2023-08-06T01:17:42;2.25;;;1.23;;
10939;SDS011;5522;42.696;23.494;2023-08-06T01:20:11;1.23;;;1.10;;
10939;SDS011;5522;42.696;23.494;2023-08-06T01:22:39;1.20;;;1.10;;
10939;SDS011;5522;42.696;23.494;2023-08-06T01:25:06;3.33;;;1.02;;
10939;SDS011;5522;42.696;23.494;2023-08-06T01:27:37;2.67;;;1.38;;
10939;SDS011;5522;42.696;23.494;2023-08-06T01:30:12;3.13;;;1.33;;
10939;SDS011;5522;42.696;23.494;2023-08-06T01:32:43;3.75;;;1.65;;
10939;SDS011;5522;42.696;23.494;2023-08-06T01:35:12;2.45;;;1.30;;
10939;SDS011;5522;42.696;23.494;2023-08-06T01:37:43;1.98;;;1.23;;
10939;SDS011;5522;42.696;23.494;2023-08-06T01:40:12;1.52;;;1.13;;
10939;SDS011;5522;42.696;23.494;2023-08-06T01:42:39;1.85;;;1.75;;
10939;SDS011;5522;42.696;23.494;2023-08-06T01:45:07;1.85;;;1.30;;
10939;SDS011;5522;42.696;23.494;2023-08-06T01:47:35;1.77;;;1.20;;
10939;SDS011;5522;42.696;23.494;2023-08-06T01:50:02;2.50;;;1.33;;
10939;SDS011;5522;42.696;23.494;2023-08-06T01:52:29;1.05;;;1.00;;
10939;SDS011;5522;42.696;23.494;2023-08-06T01:54:57;1.00;;;0.90;;
10939;SDS011;5522;42.696;23.494;2023-08-06T01:57:24;1.02;;;1.02;;
10939;SDS011;5522;42.696;23.494;2023-08-06T01:59:51;1.92;;;1.00;;
10939;SDS011;5522;42.696;23.494;2023-08-06T02:02:18;1.55;;;1.52;;
10939;SDS011;5522;42.696;23.494;2023-08-06T02:04:44;0.90;;;0.90;;
10939;SDS011;5522;42.696;23.494;2023-08-06T02:07:11;1.25;;;1.15;;
10939;SDS011;5522;42.696;23.494;2023-08-06T02:09:38;1.40;;;1.30;;
10939;SDS011;5522;42.696;23.494;2023-08-06T02:12:07;2.05;;;1.55;;
10939;SDS011;5522;42.696;23.494;2023-08-06T02:14:34;2.20;;;2.10;;
10939;SDS011;5522;42.696;23.494;2023-08-06T02:17:01;2.33;;;2.03;;
10939;SDS011;5522;42.696;23.494;2023-08-06T02:19:28;5.20;;;3.30;;
10939;SDS011;5522;42.696;23.494;2023-08-06T02:21:55;4.07;;;3.17;;
10939;SDS011;5522;42.696;23.494;2023-08-06T02:24:22;5.90;;;3.78;;
10939;SDS011;5522;42.696;23.494;2023-08-06T02:26:49;3.50;;;3.20;;
10939;SDS011;5522;42.696;23.494;2023-08-06T02:29:18;2.90;;;2.70;;
10939;SDS011;5522;42.696;23.494;2023-08-06T02:31:44;3.65;;;3.05;;
10939;SDS011;5522;42.696;23.494;2023-08-06T02:34:11;2.17;;;2.03;;
10939;SDS011;5522;42.696;23.494;2023-08-06T02:36:38;3.28;;;2.83;;
10939;SDS011;5522;42.696;23.494;2023-08-06T02:39:05;2.78;;;2.65;;
10939;SDS011;5522;42.696;23.494;2023-08-06T02:41:32;3.88;;;1.77;;
10939;SDS011;5522;42.696;23.494;2023-08-06T02:43:58;2.10;;;2.00;;
10939;SDS011;5522;42.696;23.494;2023-08-06T02:46:26;2.28;;;1.92;;
10939;SDS011;5522;42.696;23.494;2023-08-06T02:48:53;2.05;;;1.65;;
10939;SDS011;5522;42.696;23.494;2023-08-06T02:51:20;3.60;;;1.73;;
10939;SDS011;5522;42.696;23.494;2023-08-06T02:53:47;1.45;;;1.45;;
10939;SDS011;5522;42.696;23.494;2023-08-06T02:56:14;1.58;;;1.42;;
10939;SDS011;5522;42.696;23.494;2023-08-06T02:58:41;1.98;;;1.77;;
10939;SDS011;5522;42.696;23.494;2023-08-06T03:01:08;1.50;;;1.50;;
10939;SDS011;5522;42.696;23.494;2023-08-06T03:03:36;1.90;;;1.80;;
10939;SDS011;5522;42.696;23.494;2023-08-06T03:06:03;1.70;;;1.60;;
10939;SDS011;5522;42.696;23.494;2023-08-06T03:08:29;1.70;;;1.60;;
10939;SDS011;5522;42.696;23.494;2023-08-06T03:10:56;2.65;;;2.55;;
10939;SDS011;5522;42.696;23.494;2023-08-06T03:13:23;2.85;;;2.65;;
10939;SDS011;5522;42.696;23.494;2023-08-06T03:15:53;2.30;;;2.10;;
10939;SDS011;5522;42.696;23.494;2023-08-06T03:18:20;2.83;;;1.75;;
10939;SDS011;5522;42.696;23.494;2023-08-06T03:20:50;2.03;;;1.92;;
10939;SDS011;5522;42.696;23.494;2023-08-06T03:23:16;1.95;;;1.85;;
10939;SDS011;5522;42.696;23.494;2023-08-06T03:25:43;2.10;;;1.98;;
10939;SDS011;5522;42.696;23.494;2023-08-06T03:28:10;2.97;;;2.17;;
10939;SDS011;5522;42.696;23.494;2023-08-06T03:30:37;2.40;;;2.20;;
10939;SDS011;5522;42.696;23.494;2023-08-06T03:33:04;5.50;;;2.50;;
10939;SDS011;5522;42.696;23.494;2023-08-06T03:35:31;1.95;;;1.85;;
10939;SDS011;5522;42.696;23.494;2023-08-06T03:37:59;2.35;;;2.15;;
10939;SDS011;5522;42.696;23.494;2023-08-06T03:40:26;6.90;;;2.40;;
10939;SDS011;5522;42.696;23.494;2023-08-06T03:42:52;5.57;;;3.45;;
10939;SDS011;5522;42.696;23.494;2023-08-06T03:45:19;7.35;;;4.45;;
10939;SDS011;5522;42.696;23.494;2023-08-06T03:47:46;4.63;;;4.25;;
10939;SDS011;5522;42.696;23.494;2023-08-06T03:50:13;5.25;;;4.25;;
10939;SDS011;5522;42.696;23.494;2023-08-06T03:52:40;5.93;;;4.05;;
10939;SDS011;5522;42.696;23.494;2023-08-06T03:55:08;6.82;;;4.25;;
10939;SDS011;5522;42.696;23.494;2023-08-06T03:57:35;5.28;;;4.18;;
10939;SDS011;5522;42.696;23.494;2023-08-06T04:00:02;4.85;;;4.20;;
10939;SDS011;5522;42.696;23.494;2023-08-06T04:02:29;8.98;;;5.07;;
10939;SDS011;5522;42.696;23.494;2023-08-06T04:04:57;14.48;;;6.32;;
10939;SDS011;5522;42.696;23.494;2023-08-06T04:07:25;10.07;;;4.50;;
10939;SDS011;5522;42.696;23.494;2023-08-06T04:09:52;14.90;;;5.13;;
10939;SDS011;5522;42.696;23.494;2023-08-06T04:12:22;15.20;;;4.38;;
10939;SDS011;5522;42.696;23.494;2023-08-06T04:14:49;4.43;;;3.92;;
10939;SDS011;5522;42.696;23.494;2023-08-06T04:17:17;3.90;;;3.20;;
10939;SDS011;5522;42.696;23.494;2023-08-06T04:19:45;4.15;;;3.35;;
10939;SDS011;5522;42.696;23.494;2023-08-06T04:22:13;4.72;;;4.18;;
10939;SDS011;5522;42.696;23.494;2023-08-06T04:24:41;6.03;;;4.18;;
10939;SDS011;5522;42.696;23.494;2023-08-06T04:27:08;6.03;;;4.40;;
10939;SDS011;5522;42.696;23.494;2023-08-06T04:29:36;4.53;;;4.13;;
10939;SDS011;5522;42.696;23.494;2023-08-06T04:32:04;8.13;;;4.13;;
10939;SDS011;5522;42.696;23.494;2023-08-06T04:34:32;5.57;;;3.95;;
10939;SDS011;5522;42.696;23.494;2023-08-06T04:36:59;4.28;;;3.67;;
10939;SDS011;5522;42.696;23.494;2023-08-06T04:39:26;5.18;;;4.78;;
10939;SDS011;5522;42.696;23.494;2023-08-06T04:41:53;5.57;;;3.97;;
10939;SDS011;5522;42.696;23.494;2023-08-06T04:44:21;11.80;;;5.07;;
10939;SDS011;5522;42.696;23.494;2023-08-06T04:46:49;5.05;;;4.15;;
10939;SDS011;5522;42.696;23.494;2023-08-06T04:49:16;5.68;;;4.68;;
10939;SDS011;5522;42.696;23.494;2023-08-06T04:51:43;7.97;;;5.30;;
10939;SDS011;5522;42.696;23.494;2023-08-06T04:54:10;7.40;;;5.43;;
10939;SDS011;5522;42.696;23.494;2023-08-06T04:56:37;6.63;;;5.68;;
10939;SDS011;5522;42.696;23.494;2023-08-06T04:59:03;4.97;;;4.57;;
10939;SDS011;5522;42.696;23.494;2023-08-06T05:01:31;5.00;;;4.57;;
10939;SDS011;5522;42.696;23.494;2023-08-06T05:03:59;8.00;;;5.40;;
10939;SDS011;5522;42.696;23.494;2023-08-06T05:06:26;6.57;;;5.47;;
10939;SDS011;5522;42.696;23.494;2023-08-06T05:08:52;5.90;;;5.22;;
10939;SDS011;5522;42.696;23.494;2023-08-06T05:11:19;5.70;;;5.18;;
10939;SDS011;5522;42.696;23.494;2023-08-06T05:13:46;5.93;;;4.97;;
10939;SDS011;5522;42.696;23.494;2023-08-06T05:16:13;5.47;;;5.10;;
10939;SDS011;5522;42.696;23.494;2023-08-06T05:18:40;6.70;;;6.10;;
10939;SDS011;5522;42.696;23.494;2023-08-06T05:21:08;7.50;;;5.80;;
10939;SDS011;5522;42.696;23.494;2023-08-06T05:23:35;9.90;;;5.88;;
10939;SDS011;5522;42.696;23.494;2023-08-06T05:26:01;5.30;;;4.93;;
10939;SDS011;5522;42.696;23.494;2023-08-06T05:28:28;5.40;;;4.90;;
10939;SDS011;5522;42.696;23.494;2023-08-06T05:30:55;5.18;;;4.88;;
10939;SDS011;5522;42.696;23.494;2023-08-06T05:33:22;4.45;;;4.22;;
10939;SDS011;5522;42.696;23.494;2023-08-06T05:35:49;4.80;;;4.38;;
10939;SDS011;5522;42.696;23.494;2023-08-06T05:38:17;4.78;;;3.53;;
10939;SDS011;5522;42.696;23.494;2023-08-06T05:40:44;3.65;;;3.55;;
10939;SDS011;5522;42.696;23.494;2023-08-06T05:43:11;4.00;;;3.10;;
10939;SDS011;5522;42.696;23.494;2023-08-06T05:45:38;3.22;;;3.08;;
10939;SDS011;5522;42.696;23.494;2023-08-06T05:48:05;2.08;;;1.98;;
10939;SDS011;5522;42.696;23.494;2023-08-06T05:50:32;2.08;;;1.98;;
10939;SDS011;5522;42.696;23.494;2023-08-06T05:52:59;1.35;;;1.25;;
10939;SDS011;5522;42.696;23.494;2023-08-06T05:55:27;1.48;;;1.38;;
10939;SDS011;5522;42.696;23.494;2023-08-06T05:57:54;2.45;;;1.05;;
10939;SDS011;5522;42.696;23.494;2023-08-06T06:00:21;1.13;;;1.10;;
10939;SDS011;5522;42.696;23.494;2023-08-06T06:02:48;1.00;;;0.88;;
10939;SDS011;5522;42.696;23.494;2023-08-06T06:05:15;1.00;;;0.70;;
10939;SDS011;5522;42.696;23.494;2023-08-06T06:07:42;3.13;;;0.82;;
10939;SDS011;5522;42.696;23.494;2023-08-06T06:10:09;1.00;;;1.00;;
10939;SDS011;5522;42.696;23.494;2023-08-06T06:12:40;1.48;;;0.70;;
10939;SDS011;5522;42.696;23.494;2023-08-06T06:15:08;0.63;;;0.63;;
10939;SDS011;5522;42.696;23.494;2023-08-06T06:17:36;1.45;;;0.63;;
10939;SDS011;5522;42.696;23.494;2023-08-06T06:20:03;0.50;;;0.50;;
10939;SDS011;5522;42.696;23.494;2023-08-06T06:22:30;0.50;;;0.50;;
10939;SDS011;5522;42.696;23.494;2023-08-06T06:24:57;1.83;;;0.40;;
10939;SDS011;5522;42.696;23.494;2023-08-06T06:27:24;2.10;;;0.40;;
10939;SDS011;5522;42.696;23.494;2023-08-06T06:29:52;0.40;;;0.40;;
10939;SDS011;5522;42.696;23.494;2023-08-06T06:32:20;1.00;;;0.30;;
10939;SDS011;5522;42.696;23.494;2023-08-06T06:34:46;1.15;;;0.30;;
10939;SDS011;5522;42.696;23.494;2023-08-06T06:37:13;1.33;;;0.30;;
10939;SDS011;5522;42.696;23.494;2023-08-06T06:39:40;1.75;;;0.20;;
10939;SDS011;5522;42.696;23.494;2023-08-06T06:42:07;0.40;;;0.20;;
10939;SDS011;5522;42.696;23.494;2023-08-06T06:44:34;0.20;;;0.20;;
10939;SDS011;5522;42.696;23.494;2023-08-06T06:47:02;2.38;;;0.20;;
10939;SDS011;5522;42.696;23.494;2023-08-06T06:49:29;0.73;;;0.10;;
10939;SDS011;5522;42.696;23.494;2023-08-06T06:51:56;0.10;;;0.10;;
10939;SDS011;5522;42.696;23.494;2023-08-06T06:54:23;0.20;;;0.20;;
10939;SDS011;5522;42.696;23.494;2023-08-06T06:56:50;0.25;;;0.10;;
10939;SDS011;5522;42.696;23.494;2023-08-06T06:59:16;0.10;;;0.10;;
10939;SDS011;5522;42.696;23.494;2023-08-06T07:01:43;0.20;;;0.20;;
10939;SDS011;5522;42.696;23.494;2023-08-06T07:04:11;0.10;;;0.10;;
10939;SDS011;5522;42.696;23.494;2023-08-06T07:06:38;0.20;;;0.20;;
10939;SDS011;5522;42.696;23.494;2023-08-06T07:09:05;0.10;;;0.10;;
10939;SDS011;5522;42.696;23.494;2023-08-06T07:11:32;0.10;;;0.10;;
10939;SDS011;5522;42.696;23.494;2023-08-06T07:13:59;0.10;;;0.10;;
10939;SDS011;5522;42.696;23.494;2023-08-06T07:16:25;0.10;;;0.10;;
10939;SDS011;5522;42.696;23.494;2023-08-06T07:18:53;1.58;;;0.10;;
10939;SDS011;5522;42.696;23.494;2023-08-06T07:21:21;0.20;;;0.10;;
10939;SDS011;5522;42.696;23.494;2023-08-06T07:23:48;0.10;;;0.10;;
10939;SDS011;5522;42.696;23.494;2023-08-06T07:26:15;0.25;;;0.10;;
10939;SDS011;5522;42.696;23.494;2023-08-06T07:28:42;0.13;;;0.10;;
10939;SDS011;5522;42.696;23.494;2023-08-06T07:31:09;1.85;;;0.20;;
10939;SDS011;5522;42.696;23.494;2023-08-06T07:33:36;0.52;;;0.13;;
10939;SDS011;5522;42.696;23.494;2023-08-06T07:36:09;0.20;;;0.10;;
10939;SDS011;5522;42.696;23.494;2023-08-06T07:38:39;0.52;;;0.20;;
10939;SDS011;5522;42.696;23.494;2023-08-06T07:41:06;0.28;;;0.17;;
10939;SDS011;5522;42.696;23.494;2023-08-06T07:43:33;0.10;;;0.10;;
10939;SDS011;5522;42.696;23.494;2023-08-06T07:46:02;0.20;;;0.20;;
10939;SDS011;5522;42.696;23.494;2023-08-06T07:48:29;0.10;;;0.10;;
10939;SDS011;5522;42.696;23.494;2023-08-06T07:50:56;1.33;;;0.20;;
10939;SDS011;5522;42.696;23.494;2023-08-06T07:53:23;0.55;;;0.20;;
10939;SDS011;5522;42.696;23.494;2023-08-06T07:55:53;0.20;;;0.10;;
10939;SDS011;5522;42.696;23.494;2023-08-06T07:58:20;0.10;;;0.10;;
10939;SDS011;5522;42.696;23.494;2023-08-06T08:00:47;0.93;;;0.20;;
10939;SDS011;5522;42.696;23.494;2023-08-06T08:03:14;0.17;;;0.17;;
10939;SDS011;5522;42.696;23.494;2023-08-06T08:05:42;2.55;;;0.20;;
10939;SDS011;5522;42.696;23.494;2023-08-06T08:08:09;0.90;;;0.20;;
10939;SDS011;5522;42.696;23.494;2023-08-06T08:10:36;0.20;;;0.20;;
10939;SDS011;5522;42.696;23.494;2023-08-06T08:13:05;0.20;;;0.20;;
10939;SDS011;5522;42.696;23.494;2023-08-06T08:15:32;0.20;;;0.20;;
10939;SDS011;5522;42.696;23.494;2023-08-06T08:18:00;0.98;;;0.20;;
10939;SDS011;5522;42.696;23.494;2023-08-06T08:20:27;0.20;;;0.20;;
10939;SDS011;5522;42.696;23.494;2023-08-06T08:22:57;1.30;;;0.20;;
10939;SDS011;5522;42.696;23.494;2023-08-06T08:25:24;0.40;;;0.10;;
10939;SDS011;5522;42.696;23.494;2023-08-06T08:27:52;2.40;;;0.22;;
10939;SDS011;5522;42.696;23.494;2023-08-06T08:30:20;0.60;;;0.30;;
10939;SDS011;5522;42.696;23.494;2023-08-06T08:32:47;0.20;;;0.20;;
10939;SDS011;5522;42.696;23.494;2023-08-06T08:35:14;0.80;;;0.28;;
10939;SDS011;5522;42.696;23.494;2023-08-06T08:37:41;0.32;;;0.20;;
10939;SDS011;5522;42.696;23.494;2023-08-06T08:40:08;0.30;;;0.30;;
10939;SDS011;5522;42.696;23.494;2023-08-06T08:42:35;0.30;;;0.30;;
10939;SDS011;5522;42.696;23.494;2023-08-06T08:45:03;1.00;;;0.30;;
10939;SDS011;5522;42.696;23.494;2023-08-06T08:47:35;0.20;;;0.20;;
10939;SDS011;5522;42.696;23.494;2023-08-06T08:50:02;0.55;;;0.30;;
10939;SDS011;5522;42.696;23.494;2023-08-06T08:52:32;2.17;;;0.25;;
10939;SDS011;5522;42.696;23.494;2023-08-06T08:55:02;0.25;;;0.25;;
10939;SDS011;5522;42.696;23.494;2023-08-06T08:57:29;0.20;;;0.20;;
10939;SDS011;5522;42.696;23.494;2023-08-06T08:59:55;0.30;;;0.20;;
10939;SDS011;5522;42.696;23.494;2023-08-06T09:02:22;0.30;;;0.20;;
10939;SDS011;5522;42.696;23.494;2023-08-06T09:04:56;0.93;;;0.20;;
10939;SDS011;5522;42.696;23.494;2023-08-06T09:07:26;0.20;;;0.20;;
10939;SDS011;5522;42.696;23.494;2023-08-06T09:09:54;0.25;;;0.20;;
10939;SDS011;5522;42.696;23.494;2023-08-06T09:12:21;3.83;;;0.20;;
10939;SDS011;5522;42.696;23.494;2023-08-06T09:14:48;1.65;;;0.30;;
10939;SDS011;5522;42.696;23.494;2023-08-06T09:17:16;0.20;;;0.20;;
10939;SDS011;5522;42.696;23.494;2023-08-06T09:19:44;0.57;;;0.20;;
10939;SDS011;5522;42.696;23.494;2023-08-06T09:22:16;1.48;;;0.20;;
10939;SDS011;5522;42.696;23.494;2023-08-06T09:24:43;1.20;;;0.30;;
10939;SDS011;5522;42.696;23.494;2023-08-06T09:27:13;0.20;;;0.20;;
10939;SDS011;5522;42.696;23.494;2023-08-06T09:29:41;0.30;;;0.30;;
10939;SDS011;5522;42.696;23.494;2023-08-06T09:32:10;0.20;;;0.20;;
10939;SDS011;5522;42.696;23.494;2023-08-06T09:34:38;0.82;;;0.22;;
10939;SDS011;5522;42.696;23.494;2023-08-06T09:37:05;0.47;;;0.20;;
10939;SDS011;5522;42.696;23.494;2023-08-06T09:39:36;0.20;;;0.20;;
10939;SDS011;5522;42.696;23.494;2023-08-06T09:42:04;0.30;;;0.20;;
10939;SDS011;5522;42.696;23.494;2023-08-06T09:44:31;2.95;;;0.20;;
10939;SDS011;5522;42.696;23.494;2023-08-06T09:46:59;0.40;;;0.20;;
10939;SDS011;5522;42.696;23.494;2023-08-06T09:49:28;0.50;;;0.20;;
10939;SDS011;5522;42.696;23.494;2023-08-06T09:52:08;2.67;;;0.20;;
10939;SDS011;5522;42.696;23.494;2023-08-06T09:54:38;0.20;;;0.20;;
10939;SDS011;5522;42.696;23.494;2023-08-06T09:57:06;0.25;;;0.20;;
10939;SDS011;5522;42.696;23.494;2023-08-06T09:59:33;1.25;;;0.20;;
10939;SDS011;5522;42.696;23.494;2023-08-06T10:02:00;0.75;;;0.20;;
10939;SDS011;5522;42.696;23.494;2023-08-06T10:04:33;0.30;;;0.30;;
10939;SDS011;5522;42.696;23.494;2023-08-06T10:07:00;0.20;;;0.20;;
10939;SDS011;5522;42.696;23.494;2023-08-06T10:09:28;0.35;;;0.20;;
10939;SDS011;5522;42.696;23.494;2023-08-06T10:11:56;1.88;;;0.30;;
10939;SDS011;5522;42.696;23.494;2023-08-06T10:14:24;0.30;;;0.30;;
10939;SDS011;5522;42.696;23.494;2023-08-06T10:16:54;0.30;;;0.30;;
10939;SDS011;5522;42.696;23.494;2023-08-06T10:19:23;0.47;;;0.20;;
10939;SDS011;5522;42.696;23.494;2023-08-06T10:22:11;0.20;;;0.20;;
10939;SDS011;5522;42.696;23.494;2023-08-06T10:24:51;0.20;;;0.20;;
10939;SDS011;5522;42.696;23.494;2023-08-06T10:27:29;0.10;;;0.10;;
10939;SDS011;5522;42.696;23.494;2023-08-06T10:30:09;0.20;;;0.20;;
10939;SDS011;5522;42.696;23.494;2023-08-06T10:32:48;0.28;;;0.28;;
10939;SDS011;5522;42.696;23.494;2023-08-06T10:38:04;0.35;;;0.10;;
10939;SDS011;5522;42.696;23.494;2023-08-06T10:40:32;0.20;;;0.20;;
10939;SDS011;5522;42.696;23.494;2023-08-06T10:43:01;1.30;;;0.20;;
10939;SDS011;5522;42.696;23.494;2023-08-06T10:45:28;0.22;;;0.22;;
10939;SDS011;5522;42.696;23.494;2023-08-06T10:47:56;0.20;;;0.20;;
10939;SDS011;5522;42.696;23.494;2023-08-06T10:50:23;0.30;;;0.30;;
10939;SDS011;5522;42.696;23.494;2023-08-06T10:52:51;0.95;;;0.30;;
10939;SDS011;5522;42.696;23.494;2023-08-06T10:55:24;0.22;;;0.22;;
10939;SDS011;5522;42.696;23.494;2023-08-06T10:57:52;0.30;;;0.22;;
10939;SDS011;5522;42.696;23.494;2023-08-06T11:00:22;0.32;;;0.20;;
10939;SDS011;5522;42.696;23.494;2023-08-06T11:02:49;4.80;;;0.30;;
10939;SDS011;5522;42.696;23.494;2023-08-06T11:05:17;0.30;;;0.30;;
10939;SDS011;5522;42.696;23.494;2023-08-06T11:07:44;0.30;;;0.30;;
10939;SDS011;5522;42.696;23.494;2023-08-06T11:10:13;0.82;;;0.40;;
10939;SDS011;5522;42.696;23.494;2023-08-06T11:12:40;0.30;;;0.30;;
10939;SDS011;5522;42.696;23.494;2023-08-06T11:15:07;0.75;;;0.30;;
10939;SDS011;5522;42.696;23.494;2023-08-06T11:17:36;0.30;;;0.30;;
10939;SDS011;5522;42.696;23.494;2023-08-06T11:20:05;0.35;;;0.30;;
10939;SDS011;5522;42.696;23.494;2023-08-06T11:22:33;1.45;;;0.20;;
10939;SDS011;5522;42.696;23.494;2023-08-06T11:25:00;0.85;;;0.25;;
10939;SDS011;5522;42.696;23.494;2023-08-06T11:27:27;1.70;;;0.30;;
10939;SDS011;5522;42.696;23.494;2023-08-06T11:29:54;0.30;;;0.30;;
10939;SDS011;5522;42.696;23.494;2023-08-06T11:32:21;1.30;;;0.40;;
10939;SDS011;5522;42.696;23.494;2023-08-06T11:34:49;1.00;;;0.30;;
10939;SDS011;5522;42.696;23.494;2023-08-06T11:37:16;1.15;;;0.40;;
10939;SDS011;5522;42.696;23.494;2023-08-06T11:39:47;0.30;;;0.30;;
10939;SDS011;5522;42.696;23.494;2023-08-06T11:42:14;1.42;;;0.30;;
10939;SDS011;5522;42.696;23.494;2023-08-06T11:44:41;1.17;;;0.30;;
10939;SDS011;5522;42.696;23.494;2023-08-06T11:47:12;0.38;;;0.30;;
10939;SDS011;5522;42.696;23.494;2023-08-06T11:49:41;0.40;;;0.40;;
10939;SDS011;5522;42.696;23.494;2023-08-06T11:52:13;0.45;;;0.40;;
10939;SDS011;5522;42.696;23.494;2023-08-06T11:54:41;0.40;;;0.40;;
10939;SDS011;5522;42.696;23.494;2023-08-06T11:57:08;2.55;;;0.45;;
10939;SDS011;5522;42.696;23.494;2023-08-06T11:59:36;0.45;;;0.40;;
10939;SDS011;5522;42.696;23.494;2023-08-06T12:02:04;0.65;;;0.40;;
10939;SDS011;5522;42.696;23.494;2023-08-06T12:07:30;0.50;;;0.50;;
10939;SDS011;5522;42.696;23.494;2023-08-06T12:09:58;0.50;;;0.50;;
10939;SDS011;5522;42.696;23.494;2023-08-06T12:12:25;0.40;;;0.40;;
10939;SDS011;5522;42.696;23.494;2023-08-06T12:14:52;0.47;;;0.47;;
10939;SDS011;5522;42.696;23.494;2023-08-06T12:17:19;0.88;;;0.50;;
10939;SDS011;5522;42.696;23.494;2023-08-06T12:19:46;0.40;;;0.40;;
10939;SDS011;5522;42.696;23.494;2023-08-06T12:22:13;2.95;;;0.50;;
10939;SDS011;5522;42.696;23.494;2023-08-06T12:24:42;0.50;;;0.50;;
10939;SDS011;5522;42.696;23.494;2023-08-06T12:27:10;0.60;;;0.60;;
10939;SDS011;5522;42.696;23.494;2023-08-06T12:29:37;0.57;;;0.57;;
10939;SDS011;5522;42.696;23.494;2023-08-06T12:32:06;0.57;;;0.57;;
10939;SDS011;5522;42.696;23.494;2023-08-06T12:34:33;1.15;;;0.60;;
10939;SDS011;5522;42.696;23.494;2023-08-06T12:37:00;1.02;;;0.50;;
10939;SDS011;5522;42.696;23.494;2023-08-06T12:39:28;2.30;;;0.70;;
10939;SDS011;5522;42.696;23.494;2023-08-06T12:41:57;0.88;;;0.65;;
10939;SDS011;5522;42.696;23.494;2023-08-06T12:44:25;0.77;;;0.70;;
10939;SDS011;5522;42.696;23.494;2023-08-06T12:46:51;0.95;;;0.70;;
10939;SDS011;5522;42.696;23.494;2023-08-06T12:49:19;1.52;;;1.00;;
10939;SDS011;5522;42.696;23.494;2023-08-06T12:51:47;1.40;;;0.73;;
10939;SDS011;5522;42.696;23.494;2023-08-06T12:54:14;0.80;;;0.80;;
10939;SDS011;5522;42.696;23.494;2023-08-06T12:56:42;3.42;;;0.95;;
10939;SDS011;5522;42.696;23.494;2023-08-06T12:59:11;0.60;;;0.60;;
10939;SDS011;5522;42.696;23.494;2023-08-06T13:01:38;0.52;;;0.52;;
10939;SDS011;5522;42.696;23.494;2023-08-06T13:04:05;0.70;;;0.70;;
10939;SDS011;5522;42.696;23.494;2023-08-06T13:06:32;0.80;;;0.80;;
10939;SDS011;5522;42.696;23.494;2023-08-06T13:09:01;1.05;;;0.82;;
10939;SDS011;5522;42.696;23.494;2023-08-06T13:11:29;0.63;;;0.63;;
10939;SDS011;5522;42.696;23.494;2023-08-06T13:13:58;0.85;;;0.85;;
10939;SDS011;5522;42.696;23.494;2023-08-06T13:16:31;2.85;;;0.70;;
10939;SDS011;5522;42.696;23.494;2023-08-06T13:18:58;1.20;;;0.60;;
10939;SDS011;5522;42.696;23.494;2023-08-06T13:21:34;1.38;;;0.70;;
10939;SDS011;5522;42.696;23.494;2023-08-06T13:24:01;0.47;;;0.47;;
10939;SDS011;5522;42.696;23.494;2023-08-06T13:26:29;0.50;;;0.50;;
10939;SDS011;5522;42.696;23.494;2023-08-06T13:28:56;0.50;;;0.50;;
10939;SDS011;5522;42.696;23.494;2023-08-06T13:31:24;2.35;;;0.60;;
10939;SDS011;5522;42.696;23.494;2023-08-06T13:33:52;1.48;;;0.77;;
10939;SDS011;5522;42.696;23.494;2023-08-06T13:36:20;0.68;;;0.40;;
10939;SDS011;5522;42.696;23.494;2023-08-06T13:38:47;2.88;;;0.60;;
10939;SDS011;5522;42.696;23.494;2023-08-06T13:41:14;1.58;;;0.60;;
10939;SDS011;5522;42.696;23.494;2023-08-06T13:43:41;3.70;;;0.60;;
10939;SDS011;5522;42.696;23.494;2023-08-06T13:46:09;0.60;;;0.60;;
10939;SDS011;5522;42.696;23.494;2023-08-06T13:48:40;0.60;;;0.60;;
10939;SDS011;5522;42.696;23.494;2023-08-06T13:51:08;1.08;;;0.60;;
10939;SDS011;5522;42.696;23.494;2023-08-06T13:53:34;7.53;;;1.63;;
10939;SDS011;5522;42.696;23.494;2023-08-06T13:56:01;10.13;;;2.20;;
10939;SDS011;5522;42.696;23.494;2023-08-06T13:58:28;1.83;;;0.70;;
10939;SDS011;5522;42.696;23.494;2023-08-06T14:00:55;0.70;;;0.70;;
10939;SDS011;5522;42.696;23.494;2023-08-06T14:03:23;0.65;;;0.60;;
10939;SDS011;5522;42.696;23.494;2023-08-06T14:05:50;1.80;;;0.60;;
10939;SDS011;5522;42.696;23.494;2023-08-06T14:08:18;0.60;;;0.60;;
10939;SDS011;5522;42.696;23.494;2023-08-06T14:10:45;1.27;;;0.50;;
10939;SDS011;5522;42.696;23.494;2023-08-06T14:13:11;0.50;;;0.50;;
10939;SDS011;5522;42.696;23.494;2023-08-06T14:15:38;0.45;;;0.40;;
10939;SDS011;5522;42.696;23.494;2023-08-06T14:18:06;0.60;;;0.60;;
10939;SDS011;5522;42.696;23.494;2023-08-06T14:20:33;1.65;;;0.50;;
10939;SDS011;5522;42.696;23.494;2023-08-06T14:23:02;1.40;;;0.50;;
10939;SDS011;5522;42.696;23.494;2023-08-06T14:25:30;1.15;;;0.60;;
10939;SDS011;5522;42.696;23.494;2023-08-06T14:27:57;26.70;;;3.50;;
10939;SDS011;5522;42.696;23.494;2023-08-06T14:30:24;7.55;;;1.83;;
10939;SDS011;5522;42.696;23.494;2023-08-06T14:32:51;6.25;;;1.63;;
10939;SDS011;5522;42.696;23.494;2023-08-06T14:35:18;11.40;;;5.10;;
10939;SDS011;5522;42.696;23.494;2023-08-06T14:37:45;10.00;;;3.35;;
10939;SDS011;5522;42.696;23.494;2023-08-06T14:40:11;10.80;;;2.70;;
10939;SDS011;5522;42.696;23.494;2023-08-06T14:42:40;13.85;;;4.60;;
10939;SDS011;5522;42.696;23.494;2023-08-06T14:45:06;1.70;;;0.82;;
10939;SDS011;5522;42.696;23.494;2023-08-06T14:47:34;1.15;;;0.60;;
10939;SDS011;5522;42.696;23.494;2023-08-06T14:50:00;0.77;;;0.50;;
10939;SDS011;5522;42.696;23.494;2023-08-06T14:52:27;1.65;;;0.50;;
10939;SDS011;5522;42.696;23.494;2023-08-06T14:54:54;0.52;;;0.50;;
10939;SDS011;5522;42.696;23.494;2023-08-06T14:57:21;0.82;;;0.50;;